sensor_id;sensor_type;location;lat;lon;timestamp;temperature;humidity
4697;DHT22;2362;50.780;0.292;2024-03-22T00:01:46;10.00;99.90
4697;DHT22;2362;50.780;0.292;2024-03-22T00:04:12;10.00;99.90
4697;DHT22;2362;50.780;0.292;2024-03-22T00:06:39;10.00;99.90
4697;DHT22;2362;50.780;0.292;2024-03-22T00:09:05;10.00;99.90
4697;DHT22;2362;50.780;0.292;2024-03-22T00:11:30;10.00;99.90
4697;DHT22;2362;50.780;0.292;2024-03-22T00:13:56;10.00;99.90
4697;DHT22;2362;50.780;0.292;2024-03-22T00:16:21;10.00;99.90
4697;DHT22;2362;50.780;0.292;2024-03-22T00:18:47;10.00;99.90
4697;DHT22;2362;50.780;0.292;2024-03-22T00:21:13;10.10;99.90
4697;DHT22;2362;50.780;0.292;2024-03-22T00:23:38;10.10;99.90
4697;DHT22;2362;50.780;0.292;2024-03-22T00:26:04;10.10;99.90
4697;DHT22;2362;50.780;0.292;2024-03-22T00:28:29;10.10;99.90
4697;DHT22;2362;50.780;0.292;2024-03-22T00:30:55;10.10;99.90
4697;DHT22;2362;50.780;0.292;2024-03-22T00:33:21;10.10;99.90
4697;DHT22;2362;50.780;0.292;2024-03-22T00:35:48;10.10;99.90
4697;DHT22;2362;50.780;0.292;2024-03-22T00:38:13;10.10;99.90
4697;DHT22;2362;50.780;0.292;2024-03-22T00:40:39;10.10;99.90
4697;DHT22;2362;50.780;0.292;2024-03-22T00:43:04;10.20;99.90
4697;DHT22;2362;50.780;0.292;2024-03-22T00:45:31;10.10;99.90
4697;DHT22;2362;50.780;0.292;2024-03-22T00:47:57;10.10;99.90
4697;DHT22;2362;50.780;0.292;2024-03-22T00:50:22;10.00;99.90
4697;DHT22;2362;50.780;0.292;2024-03-22T00:52:50;10.10;99.90
4697;DHT22;2362;50.780;0.292;2024-03-22T00:55:16;10.10;99.90
4697;DHT22;2362;50.780;0.292;2024-03-22T00:57:42;10.10;99.90
4697;DHT22;2362;50.780;0.292;2024-03-22T01:00:07;10.10;99.90
4697;DHT22;2362;50.780;0.292;2024-03-22T01:02:33;10.10;99.90
4697;DHT22;2362;50.780;0.292;2024-03-22T01:04:59;10.10;99.90
4697;DHT22;2362;50.780;0.292;2024-03-22T01:07:24;10.10;99.90
4697;DHT22;2362;50.780;0.292;2024-03-22T01:09:50;10.10;99.90
4697;DHT22;2362;50.780;0.292;2024-03-22T01:12:15;10.10;99.90
4697;DHT22;2362;50.780;0.292;2024-03-22T01:14:41;10.10;99.90
4697;DHT22;2362;50.780;0.292;2024-03-22T01:17:07;10.10;99.90
4697;DHT22;2362;50.780;0.292;2024-03-22T01:19:33;10.10;99.90
4697;DHT22;2362;50.780;0.292;2024-03-22T01:21:58;10.10;99.90
4697;DHT22;2362;50.780;0.292;2024-03-22T01:24:24;10.10;99.90
4697;DHT22;2362;50.780;0.292;2024-03-22T01:26:50;10.10;99.90
4697;DHT22;2362;50.780;0.292;2024-03-22T01:29:15;10.10;99.90
4697;DHT22;2362;50.780;0.292;2024-03-22T01:31:41;10.10;99.90
4697;DHT22;2362;50.780;0.292;2024-03-22T01:34:07;10.10;99.90
4697;DHT22;2362;50.780;0.292;2024-03-22T01:36:32;10.20;99.90
4697;DHT22;2362;50.780;0.292;2024-03-22T01:38:58;10.20;99.90
4697;DHT22;2362;50.780;0.292;2024-03-22T01:41:23;10.20;99.90
4697;DHT22;2362;50.780;0.292;2024-03-22T01:43:49;10.10;99.90
4697;DHT22;2362;50.780;0.292;2024-03-22T01:46:15;10.20;99.90
4697;DHT22;2362;50.780;0.292;2024-03-22T01:48:41;10.20;99.90
4697;DHT22;2362;50.780;0.292;2024-03-22T01:51:07;10.20;99.90
4697;DHT22;2362;50.780;0.292;2024-03-22T01:53:34;10.20;99.90
4697;DHT22;2362;50.780;0.292;2024-03-22T01:56:01;10.20;99.90
4697;DHT22;2362;50.780;0.292;2024-03-22T01:58:26;10.20;99.90
4697;DHT22;2362;50.780;0.292;2024-03-22T02:00:52;10.20;99.90
4697;DHT22;2362;50.780;0.292;2024-03-22T02:03:18;10.20;99.90
4697;DHT22;2362;50.780;0.292;2024-03-22T02:05:43;10.20;99.90
4697;DHT22;2362;50.780;0.292;2024-03-22T02:08:35;10.20;99.90
4697;DHT22;2362;50.780;0.292;2024-03-22T02:11:01;10.20;99.90
4697;DHT22;2362;50.780;0.292;2024-03-22T02:13:26;10.20;99.90
4697;DHT22;2362;50.780;0.292;2024-03-22T02:15:52;10.20;99.90
4697;DHT22;2362;50.780;0.292;2024-03-22T02:18:18;10.20;99.90
4697;DHT22;2362;50.780;0.292;2024-03-22T02:20:43;10.20;99.90
4697;DHT22;2362;50.780;0.292;2024-03-22T02:23:09;10.20;99.90
4697;DHT22;2362;50.780;0.292;2024-03-22T02:25:34;10.20;99.90
4697;DHT22;2362;50.780;0.292;2024-03-22T02:28:00;10.20;99.90
4697;DHT22;2362;50.780;0.292;2024-03-22T02:30:25;10.20;99.90
4697;DHT22;2362;50.780;0.292;2024-03-22T02:32:51;10.20;99.90
4697;DHT22;2362;50.780;0.292;2024-03-22T02:35:17;10.30;99.90
4697;DHT22;2362;50.780;0.292;2024-03-22T02:37:42;10.20;99.90
4697;DHT22;2362;50.780;0.292;2024-03-22T02:40:08;10.30;99.90
4697;DHT22;2362;50.780;0.292;2024-03-22T02:42:34;10.30;99.90
4697;DHT22;2362;50.780;0.292;2024-03-22T02:45:01;10.30;99.90
4697;DHT22;2362;50.780;0.292;2024-03-22T02:47:26;10.30;99.90
4697;DHT22;2362;50.780;0.292;2024-03-22T02:49:52;10.30;99.90
4697;DHT22;2362;50.780;0.292;2024-03-22T02:52:17;10.30;99.90
4697;DHT22;2362;50.780;0.292;2024-03-22T02:54:43;10.30;99.90
4697;DHT22;2362;50.780;0.292;2024-03-22T02:57:09;10.30;99.90
4697;DHT22;2362;50.780;0.292;2024-03-22T02:59:34;10.30;99.90
4697;DHT22;2362;50.780;0.292;2024-03-22T03:02:00;10.40;99.90
4697;DHT22;2362;50.780;0.292;2024-03-22T03:04:25;10.40;99.90
4697;DHT22;2362;50.780;0.292;2024-03-22T03:06:51;10.40;99.90
4697;DHT22;2362;50.780;0.292;2024-03-22T03:09:17;10.30;99.90
4697;DHT22;2362;50.780;0.292;2024-03-22T03:11:42;10.30;99.90
4697;DHT22;2362;50.780;0.292;2024-03-22T03:14:08;10.30;99.90
4697;DHT22;2362;50.780;0.292;2024-03-22T03:16:37;10.30;99.90
4697;DHT22;2362;50.780;0.292;2024-03-22T03:19:02;10.30;99.90
4697;DHT22;2362;50.780;0.292;2024-03-22T03:21:28;10.20;99.90
4697;DHT22;2362;50.780;0.292;2024-03-22T03:23:53;10.20;99.90
4697;DHT22;2362;50.780;0.292;2024-03-22T03:26:19;10.30;99.90
4697;DHT22;2362;50.780;0.292;2024-03-22T03:28:45;10.30;99.90
4697;DHT22;2362;50.780;0.292;2024-03-22T03:31:10;10.20;99.90
4697;DHT22;2362;50.780;0.292;2024-03-22T03:33:36;10.20;99.90
4697;DHT22;2362;50.780;0.292;2024-03-22T03:36:01;10.20;99.90
4697;DHT22;2362;50.780;0.292;2024-03-22T03:38:27;10.20;99.90
4697;DHT22;2362;50.780;0.292;2024-03-22T03:40:53;10.20;99.90
4697;DHT22;2362;50.780;0.292;2024-03-22T03:43:18;10.20;99.90
4697;DHT22;2362;50.780;0.292;2024-03-22T03:45:45;10.20;99.90
4697;DHT22;2362;50.780;0.292;2024-03-22T03:48:10;10.20;99.90
4697;DHT22;2362;50.780;0.292;2024-03-22T03:50:36;10.20;99.90
4697;DHT22;2362;50.780;0.292;2024-03-22T03:53:01;10.20;99.90
4697;DHT22;2362;50.780;0.292;2024-03-22T03:55:27;10.20;99.90
4697;DHT22;2362;50.780;0.292;2024-03-22T03:57:53;10.20;99.90
4697;DHT22;2362;50.780;0.292;2024-03-22T04:00:19;10.20;99.90
4697;DHT22;2362;50.780;0.292;2024-03-22T04:02:45;10.20;99.90
4697;DHT22;2362;50.780;0.292;2024-03-22T04:05:11;10.10;99.90
4697;DHT22;2362;50.780;0.292;2024-03-22T04:07:37;10.10;99.90
4697;DHT22;2362;50.780;0.292;2024-03-22T04:10:05;10.10;99.90
4697;DHT22;2362;50.780;0.292;2024-03-22T04:12:31;10.10;99.90
4697;DHT22;2362;50.780;0.292;2024-03-22T04:14:56;10.10;99.90
4697;DHT22;2362;50.780;0.292;2024-03-22T04:17:24;10.00;99.90
4697;DHT22;2362;50.780;0.292;2024-03-22T04:19:49;10.00;99.90
4697;DHT22;2362;50.780;0.292;2024-03-22T04:22:15;10.00;99.90
4697;DHT22;2362;50.780;0.292;2024-03-22T04:24:41;10.00;99.90
4697;DHT22;2362;50.780;0.292;2024-03-22T04:27:06;10.00;99.90
4697;DHT22;2362;50.780;0.292;2024-03-22T04:29:33;10.00;99.90
4697;DHT22;2362;50.780;0.292;2024-03-22T04:31:58;10.00;99.90
4697;DHT22;2362;50.780;0.292;2024-03-22T04:34:24;10.00;99.90
4697;DHT22;2362;50.780;0.292;2024-03-22T04:36:50;10.00;99.90
4697;DHT22;2362;50.780;0.292;2024-03-22T04:39:19;10.00;99.90
4697;DHT22;2362;50.780;0.292;2024-03-22T04:41:44;10.00;99.90
4697;DHT22;2362;50.780;0.292;2024-03-22T04:44:10;10.00;99.90
4697;DHT22;2362;50.780;0.292;2024-03-22T04:46:36;10.00;99.90
4697;DHT22;2362;50.780;0.292;2024-03-22T04:49:01;10.00;99.90
4697;DHT22;2362;50.780;0.292;2024-03-22T04:51:27;10.00;99.90
4697;DHT22;2362;50.780;0.292;2024-03-22T04:53:52;10.10;99.90
4697;DHT22;2362;50.780;0.292;2024-03-22T04:56:18;10.00;99.90
4697;DHT22;2362;50.780;0.292;2024-03-22T04:58:44;10.00;99.90
4697;DHT22;2362;50.780;0.292;2024-03-22T05:01:11;10.00;99.90
4697;DHT22;2362;50.780;0.292;2024-03-22T05:03:38;10.10;99.90
4697;DHT22;2362;50.780;0.292;2024-03-22T05:06:04;10.00;99.90
4697;DHT22;2362;50.780;0.292;2024-03-22T05:08:32;10.00;99.90
4697;DHT22;2362;50.780;0.292;2024-03-22T05:10:57;10.00;99.90
4697;DHT22;2362;50.780;0.292;2024-03-22T05:13:23;10.10;99.90
4697;DHT22;2362;50.780;0.292;2024-03-22T05:15:48;10.10;99.90
4697;DHT22;2362;50.780;0.292;2024-03-22T05:18:16;10.10;99.90
4697;DHT22;2362;50.780;0.292;2024-03-22T05:20:41;10.00;99.90
4697;DHT22;2362;50.780;0.292;2024-03-22T05:23:07;10.10;99.90
4697;DHT22;2362;50.780;0.292;2024-03-22T05:25:33;10.10;99.90
4697;DHT22;2362;50.780;0.292;2024-03-22T05:27:58;10.10;99.90
4697;DHT22;2362;50.780;0.292;2024-03-22T05:30:24;10.10;99.90
4697;DHT22;2362;50.780;0.292;2024-03-22T05:32:49;10.10;99.90
4697;DHT22;2362;50.780;0.292;2024-03-22T05:35:16;10.10;99.90
4697;DHT22;2362;50.780;0.292;2024-03-22T05:37:41;10.10;99.90
4697;DHT22;2362;50.780;0.292;2024-03-22T05:40:07;10.10;99.90
4697;DHT22;2362;50.780;0.292;2024-03-22T05:42:34;10.10;99.90
4697;DHT22;2362;50.780;0.292;2024-03-22T05:44:59;10.10;99.90
4697;DHT22;2362;50.780;0.292;2024-03-22T05:47:25;10.10;99.90
4697;DHT22;2362;50.780;0.292;2024-03-22T05:49:51;10.10;99.90
4697;DHT22;2362;50.780;0.292;2024-03-22T05:52:17;10.10;99.90
4697;DHT22;2362;50.780;0.292;2024-03-22T05:54:43;10.20;99.90
4697;DHT22;2362;50.780;0.292;2024-03-22T05:57:09;10.10;99.90
4697;DHT22;2362;50.780;0.292;2024-03-22T05:59:35;10.10;99.90
4697;DHT22;2362;50.780;0.292;2024-03-22T06:02:01;10.20;99.90
4697;DHT22;2362;50.780;0.292;2024-03-22T06:04:27;10.20;99.90
4697;DHT22;2362;50.780;0.292;2024-03-22T06:06:53;10.20;99.90
4697;DHT22;2362;50.780;0.292;2024-03-22T06:09:19;10.20;99.90
4697;DHT22;2362;50.780;0.292;2024-03-22T06:11:53;10.20;99.90
4697;DHT22;2362;50.780;0.292;2024-03-22T06:14:18;10.20;99.90
4697;DHT22;2362;50.780;0.292;2024-03-22T06:16:44;10.20;99.90
4697;DHT22;2362;50.780;0.292;2024-03-22T06:19:09;10.20;99.90
4697;DHT22;2362;50.780;0.292;2024-03-22T06:21:35;10.20;99.90
4697;DHT22;2362;50.780;0.292;2024-03-22T06:24:01;10.20;99.90
4697;DHT22;2362;50.780;0.292;2024-03-22T06:26:27;10.20;99.90
4697;DHT22;2362;50.780;0.292;2024-03-22T06:28:52;10.30;99.90
4697;DHT22;2362;50.780;0.292;2024-03-22T06:31:18;10.30;99.90
4697;DHT22;2362;50.780;0.292;2024-03-22T06:33:43;10.30;99.90
4697;DHT22;2362;50.780;0.292;2024-03-22T06:36:34;10.30;99.90
4697;DHT22;2362;50.780;0.292;2024-03-22T06:39:01;10.30;99.90
4697;DHT22;2362;50.780;0.292;2024-03-22T06:41:30;10.40;99.90
4697;DHT22;2362;50.780;0.292;2024-03-22T06:43:55;10.40;99.90
4697;DHT22;2362;50.780;0.292;2024-03-22T06:46:21;10.40;99.90
4697;DHT22;2362;50.780;0.292;2024-03-22T06:48:48;10.40;99.90
4697;DHT22;2362;50.780;0.292;2024-03-22T06:51:13;10.40;99.90
4697;DHT22;2362;50.780;0.292;2024-03-22T06:53:39;10.40;99.90
4697;DHT22;2362;50.780;0.292;2024-03-22T06:56:05;10.40;99.90
4697;DHT22;2362;50.780;0.292;2024-03-22T06:58:30;10.50;99.90
4697;DHT22;2362;50.780;0.292;2024-03-22T07:00:56;10.50;99.90
4697;DHT22;2362;50.780;0.292;2024-03-22T07:03:22;10.50;99.90
4697;DHT22;2362;50.780;0.292;2024-03-22T07:05:48;10.50;99.90
4697;DHT22;2362;50.780;0.292;2024-03-22T07:08:13;10.50;99.90
4697;DHT22;2362;50.780;0.292;2024-03-22T07:10:39;10.50;99.90
4697;DHT22;2362;50.780;0.292;2024-03-22T07:13:05;10.50;99.90
4697;DHT22;2362;50.780;0.292;2024-03-22T07:15:31;10.50;99.90
4697;DHT22;2362;50.780;0.292;2024-03-22T07:17:58;10.50;99.90
4697;DHT22;2362;50.780;0.292;2024-03-22T07:20:24;10.50;99.90
4697;DHT22;2362;50.780;0.292;2024-03-22T07:22:50;10.50;99.90
4697;DHT22;2362;50.780;0.292;2024-03-22T07:25:15;10.50;99.90
4697;DHT22;2362;50.780;0.292;2024-03-22T07:27:41;10.60;99.90
4697;DHT22;2362;50.780;0.292;2024-03-22T07:30:07;10.50;99.90
4697;DHT22;2362;50.780;0.292;2024-03-22T07:32:33;10.50;99.90
4697;DHT22;2362;50.780;0.292;2024-03-22T07:34:58;10.60;99.90
4697;DHT22;2362;50.780;0.292;2024-03-22T07:37:24;10.60;99.90
4697;DHT22;2362;50.780;0.292;2024-03-22T07:39:50;10.60;99.90
4697;DHT22;2362;50.780;0.292;2024-03-22T07:42:16;10.70;99.90
4697;DHT22;2362;50.780;0.292;2024-03-22T07:44:42;10.70;99.90
4697;DHT22;2362;50.780;0.292;2024-03-22T07:47:11;10.70;99.90
4697;DHT22;2362;50.780;0.292;2024-03-22T07:49:37;10.70;99.90
4697;DHT22;2362;50.780;0.292;2024-03-22T07:52:03;10.80;99.90
4697;DHT22;2362;50.780;0.292;2024-03-22T07:54:29;10.80;99.90
4697;DHT22;2362;50.780;0.292;2024-03-22T07:56:55;10.90;99.90
4697;DHT22;2362;50.780;0.292;2024-03-22T07:59:20;10.80;99.90
4697;DHT22;2362;50.780;0.292;2024-03-22T08:01:46;10.90;99.90
4697;DHT22;2362;50.780;0.292;2024-03-22T08:04:12;10.90;99.90
4697;DHT22;2362;50.780;0.292;2024-03-22T08:06:38;10.90;99.90
4697;DHT22;2362;50.780;0.292;2024-03-22T08:09:03;10.90;99.90
4697;DHT22;2362;50.780;0.292;2024-03-22T08:11:29;10.90;99.90
4697;DHT22;2362;50.780;0.292;2024-03-22T08:13:54;10.90;99.90
4697;DHT22;2362;50.780;0.292;2024-03-22T08:16:27;10.90;99.90
4697;DHT22;2362;50.780;0.292;2024-03-22T08:18:53;10.90;99.90
4697;DHT22;2362;50.780;0.292;2024-03-22T08:21:18;10.90;99.90
4697;DHT22;2362;50.780;0.292;2024-03-22T08:23:45;10.90;99.90
4697;DHT22;2362;50.780;0.292;2024-03-22T08:26:10;10.90;99.90
4697;DHT22;2362;50.780;0.292;2024-03-22T08:28:36;10.90;99.90
4697;DHT22;2362;50.780;0.292;2024-03-22T08:31:04;10.80;99.90
4697;DHT22;2362;50.780;0.292;2024-03-22T08:33:30;10.80;99.90
4697;DHT22;2362;50.780;0.292;2024-03-22T08:35:56;10.80;99.90
4697;DHT22;2362;50.780;0.292;2024-03-22T08:38:21;10.80;99.90
4697;DHT22;2362;50.780;0.292;2024-03-22T08:40:48;10.80;99.90
4697;DHT22;2362;50.780;0.292;2024-03-22T08:43:13;10.80;99.90
4697;DHT22;2362;50.780;0.292;2024-03-22T08:45:39;10.80;99.90
4697;DHT22;2362;50.780;0.292;2024-03-22T08:48:06;10.80;99.90
4697;DHT22;2362;50.780;0.292;2024-03-22T08:50:32;10.80;99.90
4697;DHT22;2362;50.780;0.292;2024-03-22T08:52:57;10.70;99.90
4697;DHT22;2362;50.780;0.292;2024-03-22T08:55:23;10.70;99.90
4697;DHT22;2362;50.780;0.292;2024-03-22T08:57:51;10.80;99.90
4697;DHT22;2362;50.780;0.292;2024-03-22T09:00:17;10.80;99.90
4697;DHT22;2362;50.780;0.292;2024-03-22T09:02:42;10.70;99.90
4697;DHT22;2362;50.780;0.292;2024-03-22T09:05:08;10.70;99.90
4697;DHT22;2362;50.780;0.292;2024-03-22T09:07:34;10.70;99.90
4697;DHT22;2362;50.780;0.292;2024-03-22T09:09:59;10.70;99.90
4697;DHT22;2362;50.780;0.292;2024-03-22T09:12:25;10.70;99.90
4697;DHT22;2362;50.780;0.292;2024-03-22T09:14:51;10.70;99.90
4697;DHT22;2362;50.780;0.292;2024-03-22T09:17:16;10.60;99.90
4697;DHT22;2362;50.780;0.292;2024-03-22T09:19:42;10.70;99.90
4697;DHT22;2362;50.780;0.292;2024-03-22T09:22:07;10.70;99.90
4697;DHT22;2362;50.780;0.292;2024-03-22T09:24:33;10.70;99.90
4697;DHT22;2362;50.780;0.292;2024-03-22T09:27:00;10.70;99.90
4697;DHT22;2362;50.780;0.292;2024-03-22T09:29:25;10.70;99.90
4697;DHT22;2362;50.780;0.292;2024-03-22T09:31:51;10.80;99.90
4697;DHT22;2362;50.780;0.292;2024-03-22T09:34:18;10.90;99.90
4697;DHT22;2362;50.780;0.292;2024-03-22T09:36:45;10.80;99.90
4697;DHT22;2362;50.780;0.292;2024-03-22T09:39:11;10.90;99.90
4697;DHT22;2362;50.780;0.292;2024-03-22T09:41:42;11.00;99.90
4697;DHT22;2362;50.780;0.292;2024-03-22T09:44:12;11.00;99.90
4697;DHT22;2362;50.780;0.292;2024-03-22T09:46:40;11.10;99.90
4697;DHT22;2362;50.780;0.292;2024-03-22T09:49:11;11.10;99.90
4697;DHT22;2362;50.780;0.292;2024-03-22T09:51:38;11.10;99.90
4697;DHT22;2362;50.780;0.292;2024-03-22T09:54:04;11.20;99.90
4697;DHT22;2362;50.780;0.292;2024-03-22T09:56:31;11.20;99.90
4697;DHT22;2362;50.780;0.292;2024-03-22T09:58:57;11.20;99.90
4697;DHT22;2362;50.780;0.292;2024-03-22T10:01:24;11.30;99.90
4697;DHT22;2362;50.780;0.292;2024-03-22T10:03:52;11.20;99.90
4697;DHT22;2362;50.780;0.292;2024-03-22T10:06:18;11.30;99.90
4697;DHT22;2362;50.780;0.292;2024-03-22T10:08:44;11.20;99.90
4697;DHT22;2362;50.780;0.292;2024-03-22T10:11:11;11.20;99.90
4697;DHT22;2362;50.780;0.292;2024-03-22T10:13:37;11.20;99.90
4697;DHT22;2362;50.780;0.292;2024-03-22T10:16:03;11.30;99.90
4697;DHT22;2362;50.780;0.292;2024-03-22T10:18:29;11.30;99.90
4697;DHT22;2362;50.780;0.292;2024-03-22T10:21:04;11.30;99.90
4697;DHT22;2362;50.780;0.292;2024-03-22T10:23:31;11.40;99.90
4697;DHT22;2362;50.780;0.292;2024-03-22T10:25:57;11.50;99.90
4697;DHT22;2362;50.780;0.292;2024-03-22T10:28:27;11.60;99.90
4697;DHT22;2362;50.780;0.292;2024-03-22T10:30:53;11.60;99.90
4697;DHT22;2362;50.780;0.292;2024-03-22T10:33:21;11.70;99.90
4697;DHT22;2362;50.780;0.292;2024-03-22T10:35:52;11.80;99.90
4697;DHT22;2362;50.780;0.292;2024-03-22T10:38:20;11.80;99.90
4697;DHT22;2362;50.780;0.292;2024-03-22T10:40:46;11.80;99.90
4697;DHT22;2362;50.780;0.292;2024-03-22T10:43:13;11.80;99.90
4697;DHT22;2362;50.780;0.292;2024-03-22T10:45:40;11.80;99.90
4697;DHT22;2362;50.780;0.292;2024-03-22T10:48:09;11.70;99.90
4697;DHT22;2362;50.780;0.292;2024-03-22T10:50:38;11.70;99.90
4697;DHT22;2362;50.780;0.292;2024-03-22T10:53:09;11.80;99.90
4697;DHT22;2362;50.780;0.292;2024-03-22T10:55:43;11.80;99.90
4697;DHT22;2362;50.780;0.292;2024-03-22T10:58:21;11.70;99.90
4697;DHT22;2362;50.780;0.292;2024-03-22T11:00:47;11.70;99.90
4697;DHT22;2362;50.780;0.292;2024-03-22T11:03:13;11.80;99.90
4697;DHT22;2362;50.780;0.292;2024-03-22T11:05:50;11.70;99.90
4697;DHT22;2362;50.780;0.292;2024-03-22T11:08:29;11.70;99.90
4697;DHT22;2362;50.780;0.292;2024-03-22T11:10:58;11.70;99.90
4697;DHT22;2362;50.780;0.292;2024-03-22T11:13:23;11.70;99.90
4697;DHT22;2362;50.780;0.292;2024-03-22T11:15:49;11.80;99.90
4697;DHT22;2362;50.780;0.292;2024-03-22T11:18:16;11.90;99.90
4697;DHT22;2362;50.780;0.292;2024-03-22T11:20:44;11.80;99.90
4697;DHT22;2362;50.780;0.292;2024-03-22T11:23:10;11.80;99.90
4697;DHT22;2362;50.780;0.292;2024-03-22T11:25:36;11.90;99.90
4697;DHT22;2362;50.780;0.292;2024-03-22T11:28:02;11.90;99.90
4697;DHT22;2362;50.780;0.292;2024-03-22T11:30:28;11.90;99.90
4697;DHT22;2362;50.780;0.292;2024-03-22T11:32:54;11.90;99.90
4697;DHT22;2362;50.780;0.292;2024-03-22T11:35:21;11.90;99.90
4697;DHT22;2362;50.780;0.292;2024-03-22T11:37:47;11.90;99.90
4697;DHT22;2362;50.780;0.292;2024-03-22T11:40:13;11.80;99.90
4697;DHT22;2362;50.780;0.292;2024-03-22T11:42:47;11.80;99.90
4697;DHT22;2362;50.780;0.292;2024-03-22T11:45:15;11.90;99.90
4697;DHT22;2362;50.780;0.292;2024-03-22T11:47:42;12.00;99.90
4697;DHT22;2362;50.780;0.292;2024-03-22T11:50:08;11.90;99.90
4697;DHT22;2362;50.780;0.292;2024-03-22T11:52:35;11.90;99.90
4697;DHT22;2362;50.780;0.292;2024-03-22T11:55:01;11.90;99.90
4697;DHT22;2362;50.780;0.292;2024-03-22T11:57:27;11.90;99.90
4697;DHT22;2362;50.780;0.292;2024-03-22T11:59:59;11.90;99.90
4697;DHT22;2362;50.780;0.292;2024-03-22T12:02:24;12.00;99.90
4697;DHT22;2362;50.780;0.292;2024-03-22T12:04:50;12.00;99.90
4697;DHT22;2362;50.780;0.292;2024-03-22T12:07:17;12.10;99.90
4697;DHT22;2362;50.780;0.292;2024-03-22T12:09:44;12.10;99.90
4697;DHT22;2362;50.780;0.292;2024-03-22T12:12:11;12.20;99.90
4697;DHT22;2362;50.780;0.292;2024-03-22T12:14:38;12.20;99.90
4697;DHT22;2362;50.780;0.292;2024-03-22T12:17:04;12.10;99.90
4697;DHT22;2362;50.780;0.292;2024-03-22T12:19:30;12.00;99.90
4697;DHT22;2362;50.780;0.292;2024-03-22T12:21:56;11.90;99.90
4697;DHT22;2362;50.780;0.292;2024-03-22T12:24:23;12.00;99.90
4697;DHT22;2362;50.780;0.292;2024-03-22T12:26:49;12.00;99.90
4697;DHT22;2362;50.780;0.292;2024-03-22T12:29:16;12.10;99.90
4697;DHT22;2362;50.780;0.292;2024-03-22T12:31:42;12.00;99.90
4697;DHT22;2362;50.780;0.292;2024-03-22T12:34:33;12.00;99.90
4697;DHT22;2362;50.780;0.292;2024-03-22T12:37:00;12.00;99.90
4697;DHT22;2362;50.780;0.292;2024-03-22T12:39:26;12.00;99.90
4697;DHT22;2362;50.780;0.292;2024-03-22T12:41:51;12.10;99.90
4697;DHT22;2362;50.780;0.292;2024-03-22T12:44:18;12.10;99.90
4697;DHT22;2362;50.780;0.292;2024-03-22T12:46:43;12.20;99.90
4697;DHT22;2362;50.780;0.292;2024-03-22T12:49:11;12.50;99.90
4697;DHT22;2362;50.780;0.292;2024-03-22T12:51:38;12.70;99.90
4697;DHT22;2362;50.780;0.292;2024-03-22T12:54:04;12.80;99.90
4697;DHT22;2362;50.780;0.292;2024-03-22T12:56:31;12.70;99.90
4697;DHT22;2362;50.780;0.292;2024-03-22T12:58:57;12.70;99.90
4697;DHT22;2362;50.780;0.292;2024-03-22T13:01:24;12.80;99.90
4697;DHT22;2362;50.780;0.292;2024-03-22T13:03:49;12.80;99.90
4697;DHT22;2362;50.780;0.292;2024-03-22T13:06:15;12.80;99.90
4697;DHT22;2362;50.780;0.292;2024-03-22T13:08:41;12.80;99.90
4697;DHT22;2362;50.780;0.292;2024-03-22T13:11:07;12.90;99.90
4697;DHT22;2362;50.780;0.292;2024-03-22T13:13:35;13.00;99.90
4697;DHT22;2362;50.780;0.292;2024-03-22T13:16:02;13.00;99.90
4697;DHT22;2362;50.780;0.292;2024-03-22T13:18:31;13.00;99.90
4697;DHT22;2362;50.780;0.292;2024-03-22T13:20:57;13.10;99.90
4697;DHT22;2362;50.780;0.292;2024-03-22T13:23:22;13.20;99.90
4697;DHT22;2362;50.780;0.292;2024-03-22T13:25:48;13.00;99.90
4697;DHT22;2362;50.780;0.292;2024-03-22T13:28:14;13.10;99.90
4697;DHT22;2362;50.780;0.292;2024-03-22T13:30:40;13.00;99.90
4697;DHT22;2362;50.780;0.292;2024-03-22T13:33:06;12.90;99.90
4697;DHT22;2362;50.780;0.292;2024-03-22T13:35:33;12.80;99.90
4697;DHT22;2362;50.780;0.292;2024-03-22T13:37:59;12.70;99.90
4697;DHT22;2362;50.780;0.292;2024-03-22T13:40:26;12.60;99.90
4697;DHT22;2362;50.780;0.292;2024-03-22T13:42:54;12.50;99.90
4697;DHT22;2362;50.780;0.292;2024-03-22T13:45:20;12.50;99.90
4697;DHT22;2362;50.780;0.292;2024-03-22T13:47:46;12.50;99.90
4697;DHT22;2362;50.780;0.292;2024-03-22T13:50:12;12.40;99.90
4697;DHT22;2362;50.780;0.292;2024-03-22T13:52:42;12.40;99.90
4697;DHT22;2362;50.780;0.292;2024-03-22T13:55:08;12.40;99.90
4697;DHT22;2362;50.780;0.292;2024-03-22T13:57:33;12.30;99.90
4697;DHT22;2362;50.780;0.292;2024-03-22T13:59:59;12.20;99.90
4697;DHT22;2362;50.780;0.292;2024-03-22T14:02:25;12.00;99.90
4697;DHT22;2362;50.780;0.292;2024-03-22T14:04:51;12.00;99.90
4697;DHT22;2362;50.780;0.292;2024-03-22T14:07:17;11.90;99.90
4697;DHT22;2362;50.780;0.292;2024-03-22T14:09:43;11.90;99.90
4697;DHT22;2362;50.780;0.292;2024-03-22T14:12:08;11.70;99.90
4697;DHT22;2362;50.780;0.292;2024-03-22T14:14:35;11.60;99.90
4697;DHT22;2362;50.780;0.292;2024-03-22T14:17:02;11.50;99.90
4697;DHT22;2362;50.780;0.292;2024-03-22T14:19:30;11.40;99.90
4697;DHT22;2362;50.780;0.292;2024-03-22T14:21:57;11.40;99.90
4697;DHT22;2362;50.780;0.292;2024-03-22T14:24:24;11.30;99.90
4697;DHT22;2362;50.780;0.292;2024-03-22T14:26:49;11.30;99.90
4697;DHT22;2362;50.780;0.292;2024-03-22T14:29:15;11.20;99.90
4697;DHT22;2362;50.780;0.292;2024-03-22T14:31:42;11.10;99.90
4697;DHT22;2362;50.780;0.292;2024-03-22T14:34:08;11.10;99.90
4697;DHT22;2362;50.780;0.292;2024-03-22T14:36:34;11.00;99.90
4697;DHT22;2362;50.780;0.292;2024-03-22T14:39:00;11.00;99.90
4697;DHT22;2362;50.780;0.292;2024-03-22T14:41:27;10.90;99.90
4697;DHT22;2362;50.780;0.292;2024-03-22T14:43:54;10.90;99.90
4697;DHT22;2362;50.780;0.292;2024-03-22T14:46:20;10.90;99.90
4697;DHT22;2362;50.780;0.292;2024-03-22T14:48:50;10.90;99.90
4697;DHT22;2362;50.780;0.292;2024-03-22T14:51:15;10.90;99.90
4697;DHT22;2362;50.780;0.292;2024-03-22T14:53:41;10.90;99.90
4697;DHT22;2362;50.780;0.292;2024-03-22T14:56:07;10.90;99.90
4697;DHT22;2362;50.780;0.292;2024-03-22T14:58:36;10.90;99.90
4697;DHT22;2362;50.780;0.292;2024-03-22T15:01:05;10.80;99.90
4697;DHT22;2362;50.780;0.292;2024-03-22T15:03:32;10.80;99.90
4697;DHT22;2362;50.780;0.292;2024-03-22T15:05:59;10.70;99.90
4697;DHT22;2362;50.780;0.292;2024-03-22T15:08:25;10.70;99.90
4697;DHT22;2362;50.780;0.292;2024-03-22T15:10:52;10.80;99.90
4697;DHT22;2362;50.780;0.292;2024-03-22T15:13:19;10.80;99.90
4697;DHT22;2362;50.780;0.292;2024-03-22T15:15:57;10.70;99.90
4697;DHT22;2362;50.780;0.292;2024-03-22T15:18:25;10.70;99.90
4697;DHT22;2362;50.780;0.292;2024-03-22T15:20:52;10.60;99.90
4697;DHT22;2362;50.780;0.292;2024-03-22T15:23:19;10.50;99.90
4697;DHT22;2362;50.780;0.292;2024-03-22T15:25:48;10.50;99.90
4697;DHT22;2362;50.780;0.292;2024-03-22T15:28:15;10.50;99.90
4697;DHT22;2362;50.780;0.292;2024-03-22T15:30:41;10.40;99.90
4697;DHT22;2362;50.780;0.292;2024-03-22T15:33:13;10.40;99.90
4697;DHT22;2362;50.780;0.292;2024-03-22T15:35:39;10.40;99.90
4697;DHT22;2362;50.780;0.292;2024-03-22T15:38:05;10.30;99.90
4697;DHT22;2362;50.780;0.292;2024-03-22T15:40:31;10.20;99.90
4697;DHT22;2362;50.780;0.292;2024-03-22T15:42:58;10.10;99.90
4697;DHT22;2362;50.780;0.292;2024-03-22T15:45:24;10.10;99.90
4697;DHT22;2362;50.780;0.292;2024-03-22T15:47:50;10.00;99.90
4697;DHT22;2362;50.780;0.292;2024-03-22T15:50:15;9.90;99.90
4697;DHT22;2362;50.780;0.292;2024-03-22T15:52:41;9.80;99.90
4697;DHT22;2362;50.780;0.292;2024-03-22T15:55:07;9.70;99.90
4697;DHT22;2362;50.780;0.292;2024-03-22T15:57:33;9.70;99.90